Aérodrome :
LOGIN :

S'inscrire | Disclaimer

   EN    FR    IT 

 










Légende :    VFR   VFR Marginal   IFR   IFR Intensif   IFR Très Intensif
Visi : 
Plafond : 
>= 8 km
>= 3000ft
5 à 8 km
1000 à 3000 ft
1500m à 5 km
500 à 1000 ft
800 à 1500m
200 à 500 ft
< 800m
< 200 ft
Symboles :   Orages  Brouillard  Fortes neiges  Fortes précipitations  Vent > 20 kt
SIGMETs :   Divers  Orages  Givrage  Turbulence  Onde Orograph.  Cendres Volcan.






- Altitude de l'aérodrome : 184 ft
- Code IATA : BRU


EBBR - Bruxelles

DERNIER METAR :
  • 260020Z 21006KT 9999 BKN048 07/05 Q1019 NOSIG

METARs EXPIRÉS :
  • 252350Z 21007KT CAVOK 08/05 Q1019 NOSIG
  • 252320Z 21007KT 9999 FEW032 08/05 Q1019 NOSIG
  • 252250Z 21004KT 9999 FEW032 BKN048 08/06 Q1019 NOSIG
  • 252220Z 20007KT 9999 BKN048 09/06 Q1019 NOSIG
  • 252150Z 21009KT 9999 BKN048 08/06 Q1019 NOSIG

TAF TAF EBBR
Valide du 26 à 00h jusqu'au 27 à 06h UTC


252310Z 2600/2706 20005KT 9999 BKN040
PROB40 2618/2706 SCT004 BKN007
PROB30
TEMPO 2619/2706 3000 -DZ BKN004
PROB30
TEMPO 2704/2706 0600 BCFG



MET'MAP, la Météo Aéronautique d'un coup d'oeil ! - Copyright ORBIFLY Décembre 2007 - Disclaimer

ORBIFLY MET'MAP TEAM :

Programmation & Développement : Alexandra Zaïnal
Sur une idée originale de : Baudouin d'Aumeries
Assistance à la programmation : Marc-Olivier Méhu
Soutien technique & logistique : Manuel Goepfert

Contact : metmap@orbifly.com




SOURCES & CREDITS :

   NOAA